Time;durP1;ratioP1;P1;durP2;ratioP2;P2;SDS_P1;SDS_P2;PMS_P1;PMS_P2;Temp;Humidity;BMP_temperature;BMP_pressure;BME280_temperature;BME280_humidity;BME280_pressure;Samples;Min_cycle;Max_cycle;Signal;HPM_P1;HPM_P2
2023/10/12 00:02:04;;;;;;;11.27;2.17;;;12.60;99.90;;;;;;5096209;28;20052;-21
2023/10/12 00:04:38;;;;;;;;;;;11.60;99.90;;;;;;5096531;28;20044;-21
2023/10/12 00:07:15;;;;;;;14.93;1.65;;;12.70;99.90;;;;;;5094922;28;19920;-21
2023/10/12 00:09:48;;;;;;;12.05;1.88;;;11.20;99.90;;;;;;5096042;28;20048;-21
2023/10/12 00:12:24;;;;;;;21.33;3.40;;;12.10;99.90;;;;;;5095922;28;20048;-21
2023/10/12 00:14:56;;;;;;;14.75;2.50;;;13.20;99.90;;;;;;5096628;28;20055;-21
2023/10/12 00:17:23;;;;;;;13.00;1.85;;;13.10;99.90;;;;;;5095868;28;20055;-21
2023/10/12 00:19:53;;;;;;;12.10;2.08;;;12.60;99.90;;;;;;5096399;28;20127;-21
2023/10/12 00:22:19;;;;;;;13.45;2.28;;;12.60;99.90;;;;;;5095242;28;20052;-21
2023/10/12 00:24:45;;;;;;;19.75;3.58;;;12.60;99.90;;;;;;5096572;28;20072;-21
2023/10/12 00:27:15;;;;;;;23.23;3.22;;;11.90;99.90;;;;;;5095938;28;20476;-21
2023/10/12 00:29:41;;;;;;;14.63;2.88;;;11.40;99.90;;;;;;5095468;28;20572;-22
2023/10/12 00:32:08;;;;;;;18.30;2.72;;;12.90;99.90;;;;;;5096098;28;20040;-21
2023/10/12 00:34:39;;;;;;;15.68;3.63;;;11.60;99.90;;;;;;5094802;28;20043;-21
2023/10/12 00:37:06;;;;;;;18.23;2.88;;;12.80;99.90;;;;;;5095531;28;20052;-21
2023/10/12 00:39:45;;;;;;;13.35;2.30;;;11.50;99.90;;;;;;5095474;28;20489;-21
2023/10/12 00:42:16;;;;;;;14.85;2.75;;;12.70;99.90;;;;;;5095386;28;20055;-21
2023/10/12 00:44:42;;;;;;;16.83;2.88;;;12.70;99.90;;;;;;5095352;28;20036;-21
2023/10/12 00:47:12;;;;;;;19.40;3.17;;;12.50;99.90;;;;;;5095193;28;20109;-21
2023/10/12 00:49:48;;;;;;;29.10;3.53;;;11.60;99.90;;;;;;5094244;28;20127;-21
2023/10/12 00:52:26;;;;;;;23.60;3.42;;;12.30;99.90;;;;;;5095505;28;20589;-21
2023/10/12 00:54:58;;;;;;;17.88;2.95;;;11.80;99.90;;;;;;5095215;28;20482;-21
2023/10/12 00:57:24;;;;;;;12.25;2.38;;;11.90;99.90;;;;;;5095692;28;20099;-21
2023/10/12 00:59:52;;;;;;;16.13;3.25;;;12.20;99.90;;;;;;5093740;28;20043;-21
2023/10/12 01:02:21;;;;;;;14.02;2.17;;;11.90;99.90;;;;;;5094945;28;20052;-21
2023/10/12 01:04:53;;;;;;;17.33;2.35;;;11.70;99.90;;;;;;5094933;28;20083;-21
2023/10/12 01:07:37;;;;;;;9.90;2.15;;;11.80;99.90;;;;;;5095517;28;20052;-21
2023/10/12 01:10:10;;;;;;;13.45;3.00;;;11.70;99.90;;;;;;5094886;28;20513;-21
2023/10/12 01:12:37;;;;;;;14.30;2.22;;;11.70;99.90;;;;;;5094837;28;20040;-21
2023/10/12 01:15:11;;;;;;;11.10;1.52;;;11.60;99.90;;;;;;5094365;28;20490;-21
2023/10/12 01:17:37;;;;;;;13.85;2.05;;;11.60;99.90;;;;;;5095032;28;20055;-21
2023/10/12 01:20:26;;;;;;;6.70;1.58;;;11.40;99.90;;;;;;5093488;28;20040;-21
2023/10/12 01:22:53;;;;;;;11.25;1.85;;;11.40;99.90;;;;;;5094629;28;20090;-21
2023/10/12 01:25:27;;;;;;;9.90;1.42;;;11.40;99.90;;;;;;5094515;28;20577;-21
2023/10/12 01:27:54;;;;;;;9.05;1.70;;;11.20;99.90;;;;;;5094560;28;20047;-21
2023/10/12 01:30:23;;;;;;;12.00;1.80;;;11.10;99.90;;;;;;5094415;28;20048;-20
2023/10/12 01:32:54;;;;;;;11.43;1.20;;;11.10;99.90;;;;;;5094973;28;20101;-21
2023/10/12 01:35:26;;;;;;;10.50;1.50;;;11.20;99.90;;;;;;5094941;28;20093;-20
2023/10/12 01:38:00;;;;;;;9.88;1.42;;;11.10;99.90;;;;;;5093454;28;20079;-20
2023/10/12 01:43:14;;;;;;;10.52;1.35;;;11.00;99.90;;;;;;5095089;28;20048;-20
2023/10/12 01:46:01;;;;;;;12.20;1.45;;;11.10;99.90;;;;;;5094208;28;20054;-20
2023/10/12 01:48:33;;;;;;;11.00;0.95;;;11.00;99.90;;;;;;5094212;28;20127;-20
2023/10/12 01:51:10;;;;;;;11.30;1.92;;;10.80;99.90;;;;;;5094428;28;20047;-20
2023/10/12 01:53:37;;;;;;;16.38;1.63;;;10.90;99.90;;;;;;5093969;28;20060;-20
2023/10/12 01:56:09;;;;;;;6.85;1.45;;;11.00;99.90;;;;;;5094016;28;20157;-20
2023/10/12 01:58:35;;;;;;;8.23;1.98;;;11.00;99.90;;;;;;5094014;28;20048;-20
2023/10/12 02:01:05;;;;;;;11.75;1.52;;;11.00;99.90;;;;;;5093980;28;20470;-20
2023/10/12 02:03:32;;;;;;;6.05;1.13;;;11.00;99.90;;;;;;5094487;28;20123;-20
2023/10/12 02:06:13;;;;;;;13.40;2.45;;;10.90;99.90;;;;;;5092761;28;20106;-20
2023/10/12 02:08:45;;;;;;;6.68;1.65;;;10.90;99.90;;;;;;5094786;28;20090;-20
2023/10/12 02:13:47;;;;;;;9.98;1.67;;;11.00;99.90;;;;;;5094636;28;20194;-20
2023/10/12 02:16:15;;;;;;;11.80;1.58;;;11.00;99.90;;;;;;5093736;28;20044;-20
2023/10/12 02:18:42;;;;;;;10.45;1.90;;;11.00;99.90;;;;;;5093840;28;20123;-20
2023/10/12 02:21:11;;;;;;;10.30;2.05;;;10.90;99.90;;;;;;5075923;28;20108;-21
2023/10/12 02:23:39;;;;;;;13.77;2.15;;;11.00;99.90;;;;;;5093427;28;20486;-20
2023/10/12 02:28:53;;;;;;;11.18;1.98;;;11.00;99.90;;;;;;5093681;28;20130;-21
2023/10/12 02:31:29;;;;;;;18.83;2.00;;;10.80;99.90;;;;;;5093709;28;20055;-20
2023/10/12 02:33:56;;;;;;;12.52;1.95;;;11.00;99.90;;;;;;5092420;28;20078;-21
2023/10/12 02:36:26;;;;;;;11.55;2.13;;;10.80;99.90;;;;;;5093623;28;20044;-21
2023/10/12 02:39:00;;;;;;;11.18;1.60;;;10.90;99.90;;;;;;5092457;28;20052;-20
2023/10/12 02:41:26;;;;;;;9.73;1.15;;;10.80;99.90;;;;;;5092664;28;20115;-20
2023/10/12 02:44:11;;;;;;;10.60;1.48;;;11.00;99.90;;;;;;5093363;28;20044;-21
2023/10/12 02:46:44;;;;;;;10.45;1.50;;;10.90;99.90;;;;;;5098472;28;20048;-20
2023/10/12 02:49:13;;;;;;;17.17;2.60;;;10.80;99.90;;;;;;5096949;28;20375;-21
2023/10/12 02:51:40;;;;;;;11.27;1.90;;;10.90;99.90;;;;;;5097506;28;20055;-20
2023/10/12 02:54:07;;;;;;;11.77;1.80;;;10.80;99.90;;;;;;5097391;28;20139;-20
2023/10/12 02:56:35;;;;;;;10.70;1.50;;;10.70;99.90;;;;;;5097670;28;20127;-20
2023/10/12 02:59:08;;;;;;;5.47;1.10;;;10.70;99.90;;;;;;5097291;28;20141;-21
2023/10/12 03:01:38;;;;;;;10.77;1.80;;;10.60;99.90;;;;;;5096409;28;20416;-20
2023/10/12 03:04:10;;;;;;;9.50;1.55;;;10.50;99.90;;;;;;5097596;28;20050;-21
2023/10/12 03:06:53;;;;;;;11.38;2.00;;;10.50;99.90;;;;;;5096876;28;20044;-21
2023/10/12 03:09:26;;;;;;;10.07;1.58;;;10.70;99.90;;;;;;5079362;28;20048;-21
2023/10/12 03:11:56;;;;;;;8.40;1.65;;;10.60;99.90;;;;;;5097189;28;20088;-21
2023/10/12 03:14:26;;;;;;;12.88;1.88;;;10.50;99.90;;;;;;5096261;28;20123;-21
2023/10/12 03:16:52;;;;;;;10.13;1.70;;;10.60;99.90;;;;;;5095786;28;20055;-21
2023/10/12 03:19:23;;;;;;;10.73;1.58;;;10.40;99.90;;;;;;5096979;28;20052;-21
2023/10/12 03:21:51;;;;;;;13.55;1.77;;;10.40;99.90;;;;;;5097532;28;20434;-21
2023/10/12 03:24:21;;;;;;;13.73;2.10;;;10.40;99.90;;;;;;5095599;28;20058;-21
2023/10/12 03:29:28;;;;;;;11.77;1.52;;;10.30;99.90;;;;;;5096810;28;20062;-21
2023/10/12 03:31:57;;;;;;;12.75;2.00;;;10.10;99.90;;;;;;5096695;28;20486;-21
2023/10/12 03:36:59;;;;;;;5.32;1.38;;;10.00;99.90;;;;;;5096981;28;20217;-21
2023/10/12 03:39:28;;;;;;;6.25;1.00;;;10.00;99.90;;;;;;5096578;28;20047;-21
2023/10/12 03:42:08;;;;;;;14.73;2.58;;;10.10;99.90;;;;;;5096613;28;20048;-21
2023/10/12 03:47:16;;;;;;;12.07;2.05;;;10.00;99.90;;;;;;5097059;28;20382;-21
2023/10/12 03:52:21;;;;;;;17.50;2.80;;;9.80;99.90;;;;;;5096412;28;20055;-21
2023/10/12 04:02:47;;;;;;;14.77;2.10;;;9.80;99.90;;;;;;5096742;28;20047;-21
2023/10/12 04:05:17;;;;;;;13.13;1.50;;;9.60;99.90;;;;;;5095898;28;20127;-21
2023/10/12 04:19:10;;;;;;;12.35;2.13;;;9.60;99.90;;;;;;5096445;28;20052;-21
2023/10/12 04:21:57;;;;;;;13.10;3.10;;;9.80;99.90;;;;;;5093622;28;20059;-21
2023/10/12 04:24:42;;;;;;;10.63;1.85;;;9.80;99.90;;;;;;5095737;28;20051;-21
2023/10/12 04:29:56;;;;;;;13.93;3.13;;;10.00;99.90;;;;;;5095605;28;20087;-21
2023/10/12 04:32:51;;;;;;;14.60;2.30;;;9.70;99.90;;;;;;5094131;28;20052;-21
2023/10/12 04:38:08;;;;;;;12.05;2.10;;;9.80;99.90;;;;;;5095434;28;20482;-21
2023/10/12 04:40:43;;;;;;;10.13;1.87;;;9.60;99.90;;;;;;5095483;28;20058;-21
2023/10/12 04:43:09;;;;;;;13.35;2.42;;;10.10;99.90;;;;;;5095057;28;20425;-21
2023/10/12 04:48:33;;;;;;;7.53;1.50;;;9.70;99.90;;;;;;5049951;28;20056;-21
2023/10/12 04:50:59;;;;;;;8.70;2.10;;;9.60;99.90;;;;;;5095226;28;20363;-21
2023/10/12 04:53:53;;;;;;;8.25;1.60;;;9.60;99.90;;;;;;5093891;28;20473;-21
2023/10/12 04:56:12;;;;;;;13.98;1.90;;;9.40;99.90;;;;;;5094930;28;20052;-21
2023/10/12 04:58:42;;;;;;;7.93;1.40;;;9.60;99.90;;;;;;5093834;28;20086;-21
2023/10/12 05:01:19;;;;;;;11.93;1.45;;;9.50;99.90;;;;;;5094924;28;20064;-21
2023/10/12 05:04:06;;;;;;;12.98;2.00;;;9.50;99.90;;;;;;5094676;28;20036;-21
2023/10/12 05:06:34;;;;;;;7.10;1.65;;;9.10;99.90;;;;;;5095113;28;20051;-21
2023/10/12 05:09:04;;;;;;;9.73;1.55;;;8.90;99.90;;;;;;5077974;28;20416;-21
2023/10/12 05:11:30;;;;;;;12.65;2.38;;;9.40;99.90;;;;;;5094116;28;20048;-21
2023/10/12 05:13:56;;;;;;;15.50;2.72;;;9.30;99.90;;;;;;5060760;28;20079;-21
2023/10/12 05:16:30;;;;;;;15.85;3.13;;;8.90;99.90;;;;;;5093515;28;20593;-21
2023/10/12 05:18:56;;;;;;;9.93;2.10;;;9.20;99.90;;;;;;5093859;28;20055;-21
2023/10/12 05:21:22;;;;;;;11.40;1.85;;;8.60;99.90;;;;;;5093943;28;20420;-21
2023/10/12 05:23:48;;;;;;;7.25;1.63;;;8.60;99.90;;;;;;5094528;28;20123;-21
2023/10/12 05:26:14;;;;;;;10.23;1.98;;;8.80;99.90;;;;;;5094896;28;20102;-21
2023/10/12 05:29:00;;;;;;;17.75;2.03;;;8.50;99.90;;;;;;5093572;28;20043;-21
2023/10/12 05:31:39;;;;;;;10.18;1.88;;;8.40;99.90;;;;;;5094499;28;20051;-21
2023/10/12 05:36:49;;;;;;;14.10;2.33;;;8.60;99.90;;;;;;5094936;28;20044;-21
2023/10/12 05:39:16;;;;;;;12.60;2.25;;;8.30;99.90;;;;;;5095158;28;20059;-21
2023/10/12 05:41:43;;;;;;;11.15;2.28;;;8.70;99.90;;;;;;5095121;28;20127;-21
2023/10/12 05:44:10;;;;;;;15.00;2.20;;;8.70;99.90;;;;;;5093033;28;20040;-21
2023/10/12 05:46:36;;;;;;;11.70;1.75;;;8.70;99.90;;;;;;5094165;28;20048;-21
2023/10/12 05:49:11;;;;;;;11.90;2.15;;;8.00;99.90;;;;;;5093220;28;20040;-21
2023/10/12 05:51:44;;;;;;;12.15;1.75;;;8.60;99.90;;;;;;5094188;28;20059;-21
2023/10/12 05:54:15;;;;;;;12.65;2.83;;;7.90;99.90;;;;;;5094228;28;20048;-21
2023/10/12 05:56:43;;;;;;;9.40;2.42;;;7.90;99.90;;;;;;5093555;28;20402;-21
2023/10/12 05:59:12;;;;;;;11.93;2.35;;;8.60;99.90;;;;;;5093348;28;20047;-21
2023/10/12 06:01:38;;;;;;;7.03;1.70;;;7.80;99.90;;;;;;5094082;28;20052;-21
2023/10/12 06:04:08;;;;;;;10.15;3.22;;;8.10;99.90;;;;;;5093989;28;20124;-21
2023/10/12 06:06:41;;;;;;;10.60;2.10;;;8.50;99.90;;;;;;5093976;28;20052;-21
2023/10/12 06:09:12;;;;;;;8.32;1.70;;;8.30;99.90;;;;;;5094250;28;20397;-21
2023/10/12 06:11:46;;;;;;;13.48;2.92;;;8.40;99.90;;;;;;5093957;28;20091;-21
2023/10/12 06:14:20;;;;;;;13.65;2.90;;;8.30;99.90;;;;;;5076076;28;20048;-21
2023/10/12 06:16:47;;;;;;;9.82;1.92;;;7.80;99.90;;;;;;5094730;28;20047;-21
2023/10/12 06:19:26;;;;;;;11.50;2.45;;;8.30;99.90;;;;;;5092729;28;20043;-21
2023/10/12 06:21:53;;;;;;;9.55;2.17;;;8.40;99.90;;;;;;5094086;28;20052;-21
2023/10/12 06:24:33;;;;;;;9.35;1.83;;;7.80;99.90;;;;;;5093732;28;20052;-21
2023/10/12 06:27:11;;;;;;;23.20;5.93;;;8.30;99.90;;;;;;5093745;28;20051;-21
2023/10/12 06:29:37;;;;;;;21.33;10.43;;;7.90;99.90;;;;;;5094317;28;20051;-21
2023/10/12 06:32:16;;;;;;;21.50;8.95;;;8.10;99.90;;;;;;5092740;28;20043;-21
2023/10/12 06:34:43;;;;;;;16.15;4.85;;;8.60;99.90;;;;;;5092497;28;20052;-21
2023/10/12 06:37:49;;;;;;;17.52;4.18;;;8.50;99.90;;;;;;5075550;28;20056;-21
2023/10/12 06:42:44;;;;;;;13.77;3.25;;;8.30;99.90;;;;;;5093591;28;20044;-21
2023/10/12 06:45:15;;;;;;;11.18;2.38;;;8.00;99.90;;;;;;5093527;28;20040;-21
2023/10/12 06:47:41;;;;;;;13.20;2.50;;;8.10;99.90;;;;;;5093591;28;20051;-21
2023/10/12 06:50:17;;;;;;;15.88;3.63;;;8.60;99.90;;;;;;5093805;28;20054;-21
2023/10/12 06:52:43;;;;;;;6.10;2.15;;;8.90;99.90;;;;;;5093796;28;20185;-21
2023/10/12 06:55:21;;;;;;;12.30;2.42;;;9.00;99.90;;;;;;5091786;28;20060;-21
2023/10/12 06:57:52;;;;;;;18.20;2.70;;;8.50;99.90;;;;;;5092314;28;20052;-21
2023/10/12 07:00:33;;;;;;;11.73;2.58;;;9.00;99.90;;;;;;5094192;28;20051;-21
2023/10/12 07:03:00;;;;;;;12.05;2.78;;;9.10;99.90;;;;;;5094204;28;20047;-21
2023/10/12 07:05:33;;;;;;;11.30;2.53;;;8.80;99.90;;;;;;5093370;28;20405;-21
2023/10/12 07:07:59;;;;;;;11.40;4.03;;;8.40;99.90;;;;;;5093123;28;20055;-21
2023/10/12 07:10:28;;;;;;;15.70;2.40;;;9.00;99.90;;;;;;5093389;28;20052;-21
2023/10/12 07:12:59;;;;;;;12.23;2.33;;;9.40;99.90;;;;;;5093873;28;20450;-21
2023/10/12 07:15:31;;;;;;;9.52;2.17;;;8.60;99.90;;;;;;5093837;28;20048;-21
2023/10/12 07:17:57;;;;;;;9.82;2.70;;;9.50;99.90;;;;;;5093166;28;20386;-21
2023/10/12 07:20:40;;;;;;;15.02;2.47;;;9.00;99.90;;;;;;5093863;28;20048;-21
2023/10/12 07:23:16;;;;;;;9.35;3.00;;;9.40;99.90;;;;;;5077360;28;20059;-21
2023/10/12 07:25:48;;;;;;;12.35;2.20;;;10.10;99.90;;;;;;5094034;28;20074;-21
2023/10/12 07:28:33;;;;;;;10.13;2.03;;;9.70;99.90;;;;;;5076502;28;20052;-22
2023/10/12 07:39:26;;;;;;;9.75;2.08;;;11.00;99.90;;;;;;5096942;28;20052;-22
2023/10/12 07:41:56;;;;;;;9.60;2.08;;;11.10;99.90;;;;;;5096611;28;20547;-22
2023/10/12 07:44:23;;;;;;;7.15;1.23;;;11.00;99.90;;;;;;5096778;28;20051;-22
2023/10/12 07:46:50;;;;;;;8.63;1.73;;;11.10;99.90;;;;;;5095359;28;20048;-23
2023/10/12 07:57:22;;;;;;;12.43;1.92;;;11.30;99.90;;;;;;5096320;28;20048;-23
2023/10/12 08:02:42;;;;;;;5.75;1.17;;;11.20;99.90;;;;;;5096214;28;20059;-23
2023/10/12 08:05:18;;;;;;;6.05;1.27;;;11.30;99.90;;;;;;5096300;28;20058;-23
2023/10/12 08:21:25;;;;;;;7.53;1.20;;;12.10;99.90;;;;;;5095843;28;20058;-23
2023/10/12 08:39:38;;;;;;;14.95;2.33;;;12.60;99.90;;;;;;5095496;28;20047;-24
2023/10/12 08:44:53;;;;;;;7.82;1.30;;;12.70;99.90;;;;;;5095645;28;20052;-24
2023/10/12 08:47:27;;;;;;;11.52;1.95;;;12.70;99.90;;;;;;5094461;28;20589;-24
2023/10/12 08:49:53;;;;;;;12.35;1.85;;;12.70;99.90;;;;;;5094322;28;20083;-24
2023/10/12 08:52:30;;;;;;;9.90;1.15;;;12.80;99.90;;;;;;5094100;28;20051;-24
2023/10/12 08:55:19;;;;;;;6.60;1.33;;;12.80;99.90;;;;;;5095095;28;20060;-24
2023/10/12 08:58:01;;;;;;;9.77;1.75;;;12.90;99.90;;;;;;5093599;28;20135;-24
2023/10/12 09:01:19;;;;;;;16.02;2.20;;;12.90;99.90;;;;;;5094031;28;20059;-24
2023/10/12 09:05:51;;;;;;;11.43;1.45;;;13.00;99.90;;;;;;5094394;28;20050;-25
2023/10/12 09:11:19;;;;;;;7.45;1.30;;;13.20;99.90;;;;;;5094879;28;20164;-26
2023/10/12 09:13:37;;;;;;;8.57;1.15;;;13.30;99.90;;;;;;5092650;28;20084;-26
2023/10/12 09:16:05;;;;;;;4.45;0.73;;;13.70;99.90;;;;;;5076869;28;20049;-27
2023/10/12 09:18:43;;;;;;;7.20;1.40;;;14.00;99.90;;;;;;5094266;28;20050;-27
2023/10/12 09:24:36;;;;;;;8.38;2.25;;;14.20;99.90;;;;;;5094658;28;20050;-27
2023/10/12 09:26:37;;;;;;;14.48;1.60;;;14.50;99.90;;;;;;5083367;28;20128;-28
2023/10/12 09:36:43;;;;;;;7.93;1.30;;;15.90;99.90;;;;;;5094723;28;20056;-28
2023/10/12 09:39:17;;;;;;;6.15;1.38;;;15.90;99.90;;;;;;5094081;28;20116;-28
2023/10/12 09:41:54;;;;;;;7.95;1.33;;;16.00;99.90;;;;;;5073656;28;20045;-29
2023/10/12 09:44:26;;;;;;;9.45;1.50;;;15.80;99.90;;;;;;5074025;28;20036;-30
2023/10/12 09:46:55;;;;;;;11.57;1.50;;;15.70;99.90;;;;;;5074627;28;20106;-29
2023/10/12 09:49:23;;;;;;;10.52;1.38;;;15.70;99.90;;;;;;5073923;28;20482;-30
2023/10/12 09:51:54;;;;;;;8.07;1.00;;;15.90;99.90;;;;;;5073931;28;20052;-30
2023/10/12 09:54:45;;;;;;;10.48;1.77;;;16.10;99.90;;;;;;5073309;28;20059;-30
2023/10/12 09:57:27;;;;;;;6.85;1.27;;;15.90;99.90;;;;;;5074156;28;20056;-30
2023/10/12 09:59:59;;;;;;;6.90;1.50;;;16.30;99.90;;;;;;5073745;28;20048;-30
2023/10/12 10:02:32;;;;;;;7.63;1.30;;;16.70;99.90;;;;;;5074691;28;20046;-31
2023/10/12 10:05:11;;;;;;;10.35;1.67;;;16.80;99.90;;;;;;5074064;28;20119;-32
2023/10/12 10:08:01;;;;;;;6.55;1.30;;;17.50;99.90;;;;;;5056925;28;20505;-32
2023/10/12 10:10:31;;;;;;;9.77;1.42;;;17.60;99.90;;;;;;5073617;28;20087;-32
2023/10/12 10:12:59;;;;;;;11.57;1.20;;;17.50;99.90;;;;;;5072554;28;20048;-31
2023/10/12 10:15:37;;;;;;;5.80;1.10;;;17.30;99.90;;;;;;5073851;28;20476;-31
2023/10/12 10:18:04;;;;;;;5.30;1.02;;;17.40;99.90;;;;;;5073086;28;20055;-33
2023/10/12 10:20:46;;;;;;;7.20;1.13;;;17.60;99.90;;;;;;5073547;28;20040;-35
2023/10/12 10:23:14;;;;;;;8.05;1.77;;;18.90;99.90;;;;;;5073869;28;20044;-34
2023/10/12 10:25:50;;;;;;;5.75;1.30;;;19.30;99.90;;;;;;5072578;28;20055;-32
2023/10/12 10:28:36;;;;;;;9.93;1.63;;;19.40;99.90;;;;;;5073879;28;20456;-33
2023/10/12 10:31:04;;;;;;;4.15;0.90;;;20.30;99.90;;;;;;5073779;28;20493;-34
2023/10/12 10:33:36;;;;;;;9.00;1.20;;;20.60;99.90;;;;;;5073422;28;20075;-38
2023/10/12 10:36:24;;;;;;;9.95;1.23;;;20.80;99.90;;;;;;5072137;28;20514;-39
2023/10/12 10:41:18;;;;;;;6.90;1.08;;;19.80;99.90;;;;;;5073268;28;20202;-40
2023/10/12 10:43:45;;;;;;;7.72;1.52;;;19.00;99.90;;;;;;5073429;28;20105;-40
2023/10/12 10:46:13;;;;;;;8.20;1.60;;;18.90;99.90;;;;;;5073281;28;20054;-40
2023/10/12 10:48:42;;;;;;;11.90;1.55;;;19.10;99.90;;;;;;5073259;28;20048;-41
2023/10/12 10:51:11;;;;;;;6.70;1.25;;;19.40;99.90;;;;;;5073298;28;20044;-42
2023/10/12 10:53:40;;;;;;;9.15;1.25;;;19.70;99.90;;;;;;5071685;28;20533;-41
2023/10/12 10:56:13;;;;;;;9.60;1.42;;;19.60;99.90;;;;;;5073354;28;20132;-41
2023/10/12 10:58:40;;;;;;;5.50;1.00;;;19.70;99.90;;;;;;5073465;28;20052;-42
2023/10/12 11:01:12;;;;;;;8.43;1.88;;;20.00;99.90;;;;;;5073265;28;20186;-41
2023/10/12 11:03:39;;;;;;;7.88;1.20;;;20.10;99.90;;;;;;5073279;28;20052;-42
2023/10/12 11:06:21;;;;;;;8.85;1.35;;;19.80;99.90;;;;;;5075014;28;20048;-42
2023/10/12 11:09:06;;;;;;;7.75;1.50;;;19.20;99.90;;;;;;5076694;28;20447;-42
2023/10/12 11:11:44;;;;;;;6.78;1.33;;;18.80;99.90;;;;;;5076931;28;20133;-42
2023/10/12 11:14:14;;;;;;;9.45;1.30;;;18.20;99.90;;;;;;5076825;28;20040;-42
2023/10/12 11:16:47;;;;;;;8.13;0.98;;;18.10;99.90;;;;;;5076772;28;20494;-42
2023/10/12 11:19:14;;;;;;;5.28;1.10;;;17.70;99.90;;;;;;5075676;28;20052;-43
2023/10/12 11:21:51;;;;;;;9.35;1.40;;;17.50;99.90;;;;;;5076706;28;20568;-43
2023/10/12 11:24:18;;;;;;;9.25;2.60;;;17.10;99.90;;;;;;5075593;28;20039;-42
2023/10/12 11:26:52;;;;;;;8.73;1.55;;;16.80;99.90;;;;;;5076637;28;20045;-42
2023/10/12 11:29:18;;;;;;;9.73;1.30;;;16.70;99.90;;;;;;5075423;28;20132;-42
2023/10/12 11:32:03;;;;;;;11.07;2.15;;;16.70;99.90;;;;;;5076801;28;20076;-43
2023/10/12 11:34:33;;;;;;;8.85;1.13;;;16.70;99.90;;;;;;5076451;28;20087;-43
2023/10/12 11:36:59;;;;;;;9.73;2.00;;;16.80;99.90;;;;;;5076393;28;20056;-43
2023/10/12 11:39:28;;;;;;;8.93;1.33;;;16.90;99.90;;;;;;5076961;28;20389;-43
2023/10/12 11:42:06;;;;;;;6.10;1.30;;;17.00;99.90;;;;;;5076318;28;20040;-43
2023/10/12 11:44:36;;;;;;;11.73;1.67;;;17.00;99.90;;;;;;5077088;28;20049;-43
2023/10/12 11:47:07;;;;;;;10.32;1.73;;;17.10;99.90;;;;;;5076320;28;20102;-43
2023/10/12 11:50:09;;;;;;;10.02;1.35;;;16.90;99.90;;;;;;5076361;28;20056;-43
2023/10/12 11:52:39;;;;;;;7.55;1.05;;;17.10;99.90;;;;;;5054252;28;20103;-42
2023/10/12 11:55:15;;;;;;;11.25;1.23;;;17.10;99.90;;;;;;5076335;28;20063;-43
2023/10/12 11:57:48;;;;;;;12.05;1.63;;;17.30;99.90;;;;;;5076111;28;20052;-43
2023/10/12 12:00:21;;;;;;;8.68;1.65;;;17.30;99.90;;;;;;5075129;28;20091;-43
2023/10/12 12:02:52;;;;;;;7.13;1.50;;;17.40;99.90;;;;;;5075326;28;20066;-43
2023/10/12 12:05:22;;;;;;;8.73;2.22;;;17.20;99.90;;;;;;5075951;28;20070;-43
2023/10/12 12:07:51;;;;;;;6.25;1.52;;;17.10;99.90;;;;;;5074895;28;20106;-43
2023/10/12 12:13:20;;;;;;;10.98;1.92;;;16.60;99.90;;;;;;5059188;28;20102;-41
2023/10/12 12:15:47;;;;;;;11.90;2.15;;;16.50;99.90;;;;;;5076623;28;20106;-41
2023/10/12 12:18:18;;;;;;;12.63;1.85;;;16.50;99.90;;;;;;5074677;28;20091;-41
2023/10/12 12:20:44;;;;;;;9.20;1.38;;;16.40;99.90;;;;;;5074411;28;20048;-41
2023/10/12 12:23:14;;;;;;;6.07;1.35;;;16.40;99.90;;;;;;5075558;28;20051;-41
2023/10/12 12:25:40;;;;;;;9.70;1.10;;;16.60;99.90;;;;;;5075508;28;20049;-41
2023/10/12 12:28:14;;;;;;;8.23;1.40;;;16.40;99.90;;;;;;5075512;28;20052;-41
2023/10/12 12:30:46;;;;;;;9.68;1.65;;;16.50;99.90;;;;;;5075757;28;20072;-41
2023/10/12 12:33:18;;;;;;;7.55;1.60;;;16.40;99.90;;;;;;5075058;28;20414;-41
2023/10/12 12:35:47;;;;;;;6.85;1.35;;;16.40;99.90;;;;;;5075325;28;20050;-40
2023/10/12 12:40:59;;;;;;;12.65;1.63;;;16.40;99.90;;;;;;5075277;28;20048;-41
2023/10/12 12:43:26;;;;;;;8.88;1.63;;;16.40;99.90;;;;;;5075211;28;20055;-39
2023/10/12 12:45:52;;;;;;;9.30;1.52;;;16.40;99.90;;;;;;5075111;28;20041;-39
2023/10/12 12:48:21;;;;;;;7.25;1.38;;;16.40;99.90;;;;;;5075156;28;20049;-40
2023/10/12 12:50:50;;;;;;;9.13;1.73;;;16.40;99.90;;;;;;5075529;28;20048;-37
2023/10/12 12:53:19;;;;;;;6.38;1.25;;;16.40;99.90;;;;;;5074682;28;20059;-39
2023/10/12 12:55:46;;;;;;;11.70;1.95;;;16.40;99.90;;;;;;5075446;28;20051;-40
2023/10/12 12:58:17;;;;;;;9.30;1.25;;;16.40;99.90;;;;;;5074168;28;20475;-38
2023/10/12 13:00:52;;;;;;;9.77;1.67;;;16.40;99.90;;;;;;5073737;28;20056;-39
2023/10/12 13:03:18;;;;;;;8.43;1.70;;;16.40;99.90;;;;;;5075086;28;20044;-36
2023/10/12 13:05:44;;;;;;;4.40;1.02;;;16.30;99.90;;;;;;5075104;28;20514;-39
2023/10/12 13:08:11;;;;;;;10.13;1.45;;;16.40;99.90;;;;;;5073538;28;20093;-39
2023/10/12 13:10:38;;;;;;;10.70;1.65;;;16.40;99.90;;;;;;5074614;28;20053;-37
2023/10/12 13:13:04;;;;;;;7.57;1.35;;;16.40;99.90;;;;;;5073566;28;20102;-36
2023/10/12 13:15:41;;;;;;;8.95;2.05;;;16.40;99.90;;;;;;5074500;28;20131;-39
2023/10/12 13:18:16;;;;;;;7.57;1.52;;;16.40;99.90;;;;;;5073485;28;20052;-35
2023/10/12 13:20:49;;;;;;;11.20;4.22;;;16.30;99.90;;;;;;5074461;28;20080;-38
2023/10/12 13:23:18;;;;;;;9.45;1.77;;;16.20;99.90;;;;;;5074708;28;20059;-37
2023/10/12 13:25:44;;;;;;;6.25;1.02;;;16.10;99.90;;;;;;5073157;28;20463;-36
2023/10/12 13:28:10;;;;;;;9.25;1.50;;;16.00;99.90;;;;;;5074377;28;20047;-36
2023/10/12 13:30:37;;;;;;;8.43;2.03;;;16.00;99.90;;;;;;5074323;28;20044;-37
2023/10/12 13:33:05;;;;;;;8.20;1.58;;;16.00;99.90;;;;;;5074234;28;20044;-34
2023/10/12 13:38:12;;;;;;;7.30;1.30;;;16.00;99.90;;;;;;5074737;28;20052;-35
2023/10/12 13:40:43;;;;;;;8.10;0.90;;;16.00;99.90;;;;;;5074033;28;20049;-34
2023/10/12 13:43:18;;;;;;;7.32;1.48;;;16.00;99.90;;;;;;5074086;28;20363;-33
2023/10/12 13:45:48;;;;;;;7.95;1.27;;;16.00;99.90;;;;;;5074565;28;20128;-34
2023/10/12 13:48:21;;;;;;;7.32;1.73;;;15.90;99.90;;;;;;5073967;28;20105;-34
2023/10/12 13:51:01;;;;;;;13.57;1.30;;;15.90;99.90;;;;;;5074567;28;20044;-34
2023/10/12 13:53:42;;;;;;;8.45;1.90;;;15.80;99.90;;;;;;5074734;28;20080;-33
2023/10/12 13:56:08;;;;;;;13.63;1.92;;;15.60;99.90;;;;;;5073877;28;20048;-34
2023/10/12 13:58:36;;;;;;;8.30;1.58;;;15.50;99.90;;;;;;5074308;28;20048;-32
2023/10/12 14:01:03;;;;;;;8.52;1.52;;;15.50;99.90;;;;;;5074449;28;20547;-32
2023/10/12 14:03:34;;;;;;;9.45;1.30;;;15.30;99.90;;;;;;5072793;28;20195;-33
2023/10/12 14:06:01;;;;;;;7.35;1.33;;;15.20;99.90;;;;;;5074063;28;20123;-32
2023/10/12 14:08:32;;;;;;;7.50;1.40;;;15.20;99.90;;;;;;5055798;28;20054;-33
2023/10/12 14:11:03;;;;;;;9.15;1.30;;;15.20;99.90;;;;;;5074341;28;20048;-33
2023/10/12 14:13:30;;;;;;;8.15;2.03;;;15.20;99.90;;;;;;5073568;28;20139;-32
2023/10/12 14:15:56;;;;;;;12.40;2.30;;;15.30;99.90;;;;;;5073615;28;20053;-33
2023/10/12 14:18:21;;;;;;;8.70;1.88;;;15.30;99.90;;;;;;5072395;28;20044;-33
2023/10/12 14:20:49;;;;;;;8.00;1.75;;;15.20;99.90;;;;;;5073649;28;20044;-32
2023/10/12 14:23:15;;;;;;;7.00;1.38;;;15.20;99.90;;;;;;5072425;28;20124;-32
2023/10/12 14:25:47;;;;;;;9.02;1.65;;;15.10;99.90;;;;;;5072433;28;20044;-32
2023/10/12 14:28:17;;;;;;;9.13;1.27;;;15.00;99.90;;;;;;5073592;28;20394;-33
2023/10/12 14:30:47;;;;;;;7.25;1.20;;;15.00;99.90;;;;;;5072806;28;20139;-31
2023/10/12 14:33:19;;;;;;;8.00;1.27;;;14.90;99.90;;;;;;5072476;28;20486;-33
2023/10/12 14:35:46;;;;;;;5.13;1.10;;;14.90;99.90;;;;;;5073520;28;20049;-31
2023/10/12 14:38:16;;;;;;;11.43;1.75;;;14.80;99.90;;;;;;5073448;28;20059;-31
2023/10/12 14:40:44;;;;;;;8.82;1.35;;;14.80;99.90;;;;;;5075390;28;20049;-31
2023/10/12 14:43:15;;;;;;;11.05;2.40;;;14.60;99.90;;;;;;5077524;28;20044;-31
2023/10/12 14:45:49;;;;;;;15.30;2.85;;;14.40;99.90;;;;;;5077256;28;20053;-31
2023/10/12 14:48:18;;;;;;;8.88;1.85;;;14.20;99.90;;;;;;5076718;28;20415;-31
2023/10/12 14:50:49;;;;;;;12.63;1.42;;;14.00;99.90;;;;;;5077332;28;20051;-30
2023/10/12 14:53:21;;;;;;;7.88;1.92;;;13.80;99.90;;;;;;5076362;28;20133;-31
2023/10/12 14:55:53;;;;;;;8.82;1.95;;;13.60;99.90;;;;;;5077488;28;20146;-32
2023/10/12 14:58:26;;;;;;;8.95;1.52;;;13.40;99.90;;;;;;5078024;28;20045;-31
2023/10/12 15:00:53;;;;;;;8.30;1.70;;;13.30;99.90;;;;;;5077124;28;20132;-31
2023/10/12 15:03:22;;;;;;;10.25;1.52;;;13.20;99.90;;;;;;5077597;28;20498;-30
2023/10/12 15:05:51;;;;;;;10.40;1.73;;;13.00;99.90;;;;;;5077029;28;20043;-31
2023/10/12 15:08:21;;;;;;;9.95;1.63;;;12.90;99.90;;;;;;5077586;28;20137;-30
2023/10/12 15:10:47;;;;;;;10.98;1.70;;;12.80;99.90;;;;;;5075961;28;20099;-31
2023/10/12 15:13:14;;;;;;;13.18;2.10;;;12.70;99.90;;;;;;5076863;28;20052;-30
2023/10/12 15:15:47;;;;;;;8.68;1.65;;;12.70;99.90;;;;;;5076690;28;20497;-29